sensor_id;sensor_type;location;lat;lon;timestamp;pressure;altitude;pressure_sealevel;temperature;humidity
76124;BME280;65173;48.066;20.976;2022-12-11T00:00:17;98384.19;;;1.72;89.58
76124;BME280;65173;48.066;20.976;2022-12-11T00:03:19;98386.13;;;1.66;89.56
76124;BME280;65173;48.066;20.976;2022-12-11T00:06:22;98383.53;;;1.66;89.08
76124;BME280;65173;48.066;20.976;2022-12-11T00:09:25;98369.63;;;1.66;88.59
76124;BME280;65173;48.066;20.976;2022-12-11T00:12:31;98369.75;;;1.61;89.16
76124;BME280;65173;48.066;20.976;2022-12-11T00:15:34;98360.47;;;1.63;88.70
76124;BME280;65173;48.066;20.976;2022-12-11T00:18:39;98369.91;;;1.64;89.38
76124;BME280;65173;48.066;20.976;2022-12-11T00:21:42;98372.72;;;1.68;88.74
76124;BME280;65173;48.066;20.976;2022-12-11T00:24:44;98339.66;;;1.67;88.78
76124;BME280;65173;48.066;20.976;2022-12-11T00:27:47;98343.34;;;1.66;88.70
76124;BME280;65173;48.066;20.976;2022-12-11T00:30:50;98352.59;;;1.63;88.98
76124;BME280;65173;48.066;20.976;2022-12-11T00:33:53;98338.09;;;1.66;88.20
76124;BME280;65173;48.066;20.976;2022-12-11T00:36:56;98352.91;;;1.62;88.51
76124;BME280;65173;48.066;20.976;2022-12-11T00:40:00;98335.00;;;1.64;88.51
76124;BME280;65173;48.066;20.976;2022-12-11T00:43:03;98317.25;;;1.61;89.02
76124;BME280;65173;48.066;20.976;2022-12-11T00:46:06;98321.25;;;1.58;88.97
76124;BME280;65173;48.066;20.976;2022-12-11T00:49:08;98315.69;;;1.60;87.80
76124;BME280;65173;48.066;20.976;2022-12-11T00:52:11;98314.28;;;1.62;88.53
76124;BME280;65173;48.066;20.976;2022-12-11T00:55:14;98303.66;;;1.59;87.89
76124;BME280;65173;48.066;20.976;2022-12-11T00:58:17;98302.09;;;1.58;88.21
76124;BME280;65173;48.066;20.976;2022-12-11T01:01:21;98292.19;;;1.55;87.09
76124;BME280;65173;48.066;20.976;2022-12-11T01:04:26;98288.78;;;1.54;88.01
76124;BME280;65173;48.066;20.976;2022-12-11T01:07:29;98280.44;;;1.52;86.95
76124;BME280;65173;48.066;20.976;2022-12-11T01:10:33;98262.97;;;1.48;87.25
76124;BME280;65173;48.066;20.976;2022-12-11T01:13:37;98252.63;;;1.51;87.15
76124;BME280;65173;48.066;20.976;2022-12-11T01:16:40;98231.00;;;1.46;87.16
76124;BME280;65173;48.066;20.976;2022-12-11T01:19:42;98254.59;;;1.37;87.97
76124;BME280;65173;48.066;20.976;2022-12-11T01:22:45;98259.84;;;1.37;87.63
76124;BME280;65173;48.066;20.976;2022-12-11T01:25:48;98255.66;;;1.36;87.87
76124;BME280;65173;48.066;20.976;2022-12-11T01:28:51;98255.66;;;1.36;87.43
76124;BME280;65173;48.066;20.976;2022-12-11T01:31:54;98267.06;;;1.31;86.54
76124;BME280;65173;48.066;20.976;2022-12-11T01:34:57;98286.97;;;1.32;86.53
76124;BME280;65173;48.066;20.976;2022-12-11T01:38:00;98286.66;;;1.25;87.20
76124;BME280;65173;48.066;20.976;2022-12-11T01:41:03;98263.75;;;1.17;87.64
76124;BME280;65173;48.066;20.976;2022-12-11T01:47:17;98261.13;;;1.17;87.80
76124;BME280;65173;48.066;20.976;2022-12-11T01:50:21;98246.28;;;1.13;86.83
76124;BME280;65173;48.066;20.976;2022-12-11T01:53:34;98226.06;;;1.13;87.41
76124;BME280;65173;48.066;20.976;2022-12-11T01:56:39;98207.81;;;1.08;87.13
76124;BME280;65173;48.066;20.976;2022-12-11T01:59:45;98184.84;;;1.05;87.08
76124;BME280;65173;48.066;20.976;2022-12-11T02:02:48;98188.53;;;1.04;87.96
76124;BME280;65173;48.066;20.976;2022-12-11T02:05:50;98179.22;;;0.98;87.22
76124;BME280;65173;48.066;20.976;2022-12-11T02:08:54;98205.94;;;1.00;86.96
76124;BME280;65173;48.066;20.976;2022-12-11T02:26:14;98187.06;;;0.89;88.08
76124;BME280;65173;48.066;20.976;2022-12-11T02:29:26;98191.22;;;0.90;88.42
76124;BME280;65173;48.066;20.976;2022-12-11T02:32:41;98182.91;;;0.88;88.42
76124;BME280;65173;48.066;20.976;2022-12-11T02:35:45;98182.72;;;0.85;88.80
76124;BME280;65173;48.066;20.976;2022-12-11T02:38:50;98190.75;;;0.88;88.48
76124;BME280;65173;48.066;20.976;2022-12-11T02:41:54;98192.16;;;0.94;87.40
76124;BME280;65173;48.066;20.976;2022-12-11T02:44:59;98188.91;;;0.89;88.29
76124;BME280;65173;48.066;20.976;2022-12-11T02:48:05;98187.97;;;0.85;88.35
76124;BME280;65173;48.066;20.976;2022-12-11T02:51:10;98185.47;;;0.80;88.50
76124;BME280;65173;48.066;20.976;2022-12-11T02:54:18;98186.53;;;0.79;88.80
76124;BME280;65173;48.066;20.976;2022-12-11T02:57:40;98189.44;;;0.77;88.24
76124;BME280;65173;48.066;20.976;2022-12-11T03:00:45;98181.75;;;0.81;88.58
76124;BME280;65173;48.066;20.976;2022-12-11T03:03:48;98195.47;;;0.78;88.41
76124;BME280;65173;48.066;20.976;2022-12-11T03:06:53;98190.03;;;0.74;88.39
76124;BME280;65173;48.066;20.976;2022-12-11T03:09:58;98182.19;;;0.74;88.81
76124;BME280;65173;48.066;20.976;2022-12-11T03:13:03;98172.66;;;0.78;87.60
76124;BME280;65173;48.066;20.976;2022-12-11T03:16:29;98162.63;;;0.80;88.04
76124;BME280;65173;48.066;20.976;2022-12-11T03:19:39;98155.38;;;0.77;88.49
76124;BME280;65173;48.066;20.976;2022-12-11T03:22:46;98141.00;;;0.75;88.04
76124;BME280;65173;48.066;20.976;2022-12-11T03:25:57;98134.69;;;0.76;87.75
76124;BME280;65173;48.066;20.976;2022-12-11T03:29:14;98134.69;;;0.76;87.20
76124;BME280;65173;48.066;20.976;2022-12-11T03:32:21;98122.34;;;0.76;87.47
76124;BME280;65173;48.066;20.976;2022-12-11T03:35:44;98145.31;;;0.71;87.28
76124;BME280;65173;48.066;20.976;2022-12-11T03:38:55;98150.72;;;0.74;87.61
76124;BME280;65173;48.066;20.976;2022-12-11T03:42:05;98152.25;;;0.75;87.76
76124;BME280;65173;48.066;20.976;2022-12-11T03:45:11;98151.97;;;0.77;87.47
76124;BME280;65173;48.066;20.976;2022-12-11T03:48:16;98152.56;;;0.74;88.87
76124;BME280;65173;48.066;20.976;2022-12-11T03:51:20;98160.31;;;0.79;89.24
76124;BME280;65173;48.066;20.976;2022-12-11T03:54:25;98155.38;;;0.77;88.99
76124;BME280;65173;48.066;20.976;2022-12-11T03:57:32;98154.00;;;0.80;88.08
76124;BME280;65173;48.066;20.976;2022-12-11T04:00:36;98159.53;;;0.78;88.41
76124;BME280;65173;48.066;20.976;2022-12-11T04:03:39;98160.31;;;0.79;88.05
76124;BME280;65173;48.066;20.976;2022-12-11T04:06:42;98162.16;;;0.78;88.33
76124;BME280;65173;48.066;20.976;2022-12-11T04:09:45;98141.97;;;0.79;87.83
76124;BME280;65173;48.066;20.976;2022-12-11T04:12:47;98137.91;;;0.73;88.71
76124;BME280;65173;48.066;20.976;2022-12-11T04:15:50;98135.75;;;0.75;88.74
76124;BME280;65173;48.066;20.976;2022-12-11T04:18:53;98112.63;;;0.77;89.24
76124;BME280;65173;48.066;20.976;2022-12-11T04:22:16;98128.38;;;0.77;90.18
76124;BME280;65173;48.066;20.976;2022-12-11T04:25:37;98124.19;;;0.76;89.97
76124;BME280;65173;48.066;20.976;2022-12-11T04:28:40;98121.88;;;0.74;90.00
76124;BME280;65173;48.066;20.976;2022-12-11T04:31:44;98127.41;;;0.73;90.06
76124;BME280;65173;48.066;20.976;2022-12-11T04:34:47;98143.16;;;0.73;89.36
76124;BME280;65173;48.066;20.976;2022-12-11T04:37:51;98128.81;;;0.70;88.83
76124;BME280;65173;48.066;20.976;2022-12-11T04:41:08;98129.25;;;0.72;88.53
76124;BME280;65173;48.066;20.976;2022-12-11T04:44:11;98140.06;;;0.71;89.72
76124;BME280;65173;48.066;20.976;2022-12-11T04:47:14;98139.41;;;0.65;90.39
76124;BME280;65173;48.066;20.976;2022-12-11T04:50:17;98139.53;;;0.60;90.18
76124;BME280;65173;48.066;20.976;2022-12-11T04:53:20;98125.25;;;0.66;89.92
76124;BME280;65173;48.066;20.976;2022-12-11T04:56:23;98134.00;;;0.61;90.19
76124;BME280;65173;48.066;20.976;2022-12-11T04:59:26;98133.53;;;0.59;90.10
76124;BME280;65173;48.066;20.976;2022-12-11T05:02:29;98137.38;;;0.62;90.38
76124;BME280;65173;48.066;20.976;2022-12-11T05:05:31;98146.75;;;0.54;90.73
76124;BME280;65173;48.066;20.976;2022-12-11T05:08:36;98156.16;;;0.55;90.04
76124;BME280;65173;48.066;20.976;2022-12-11T05:11:39;98158.19;;;0.58;90.46
76124;BME280;65173;48.066;20.976;2022-12-11T05:14:41;98170.22;;;0.59;90.16
76124;BME280;65173;48.066;20.976;2022-12-11T05:17:44;98174.34;;;0.52;90.42
76124;BME280;65173;48.066;20.976;2022-12-11T05:20:55;98164.84;;;0.42;90.28
76124;BME280;65173;48.066;20.976;2022-12-11T05:23:58;98169.91;;;0.39;90.81
76124;BME280;65173;48.066;20.976;2022-12-11T05:27:01;98171.59;;;0.34;90.47
76124;BME280;65173;48.066;20.976;2022-12-11T05:30:04;98183.94;;;0.34;91.06
76124;BME280;65173;48.066;20.976;2022-12-11T05:33:07;98186.25;;;0.36;91.00
76124;BME280;65173;48.066;20.976;2022-12-11T05:36:27;98178.69;;;0.34;90.84
76124;BME280;65173;48.066;20.976;2022-12-11T05:39:30;98183.84;;;0.25;91.08
76124;BME280;65173;48.066;20.976;2022-12-11T05:42:33;98194.81;;;0.27;90.72
76124;BME280;65173;48.066;20.976;2022-12-11T05:45:36;98194.91;;;0.22;90.08
76124;BME280;65173;48.066;20.976;2022-12-11T05:48:39;98199.97;;;0.19;90.99
76124;BME280;65173;48.066;20.976;2022-12-11T05:51:42;98213.06;;;0.19;90.61
76124;BME280;65173;48.066;20.976;2022-12-11T05:54:48;98210.56;;;0.14;90.82
76124;BME280;65173;48.066;20.976;2022-12-11T05:57:51;98221.03;;;0.14;90.21
76124;BME280;65173;48.066;20.976;2022-12-11T06:00:54;98220.75;;;0.15;90.94
76124;BME280;65173;48.066;20.976;2022-12-11T06:03:58;98231.91;;;0.07;91.26
76124;BME280;65173;48.066;20.976;2022-12-11T06:07:01;98239.28;;;0.05;92.00
76124;BME280;65173;48.066;20.976;2022-12-11T06:10:04;98245.19;;;0.11;91.58
76124;BME280;65173;48.066;20.976;2022-12-11T06:13:07;98256.75;;;0.10;91.75
76124;BME280;65173;48.066;20.976;2022-12-11T06:16:09;98261.88;;;0.01;92.19
76124;BME280;65173;48.066;20.976;2022-12-11T06:19:13;98262.00;;;-0.04;92.23
76124;BME280;65173;48.066;20.976;2022-12-11T06:22:18;98270.34;;;-0.02;92.66
76124;BME280;65173;48.066;20.976;2022-12-11T06:25:21;98271.50;;;-0.08;92.70
76124;BME280;65173;48.066;20.976;2022-12-11T06:28:23;98280.63;;;-0.06;92.72
76124;BME280;65173;48.066;20.976;2022-12-11T06:31:26;98291.09;;;-0.06;92.51
76124;BME280;65173;48.066;20.976;2022-12-11T06:34:29;98284.88;;;-0.10;92.80
76124;BME280;65173;48.066;20.976;2022-12-11T06:37:36;98285.25;;;-0.16;92.77
76124;BME280;65173;48.066;20.976;2022-12-11T06:40:40;98294.38;;;-0.14;92.94
76124;BME280;65173;48.066;20.976;2022-12-11T06:43:43;98290.50;;;-0.16;92.97
76124;BME280;65173;48.066;20.976;2022-12-11T06:46:46;98293.88;;;-0.16;93.17
76124;BME280;65173;48.066;20.976;2022-12-11T06:49:49;98303.50;;;-0.11;93.09
76124;BME280;65173;48.066;20.976;2022-12-11T06:52:51;98315.63;;;-0.15;93.29
76124;BME280;65173;48.066;20.976;2022-12-11T06:55:54;98325.03;;;-0.14;93.39
76124;BME280;65173;48.066;20.976;2022-12-11T06:58:57;98339.66;;;-0.13;93.30
76124;BME280;65173;48.066;20.976;2022-12-11T07:02:12;98362.78;;;-0.02;93.05
76124;BME280;65173;48.066;20.976;2022-12-11T07:05:16;98357.13;;;-0.09;93.33
76124;BME280;65173;48.066;20.976;2022-12-11T07:08:18;98361.38;;;-0.13;93.28
76124;BME280;65173;48.066;20.976;2022-12-11T07:11:22;98381.09;;;-0.02;92.93
76124;BME280;65173;48.066;20.976;2022-12-11T07:14:25;98381.38;;;-0.03;92.96
76124;BME280;65173;48.066;20.976;2022-12-11T07:17:28;98391.66;;;-0.07;93.17
76124;BME280;65173;48.066;20.976;2022-12-11T07:20:36;98396.53;;;0.00;92.54
76124;BME280;65173;48.066;20.976;2022-12-11T07:23:40;98404.66;;;-0.02;92.63
76124;BME280;65173;48.066;20.976;2022-12-11T07:26:43;98408.84;;;-0.01;92.49
76124;BME280;65173;48.066;20.976;2022-12-11T07:29:46;98419.50;;;0.03;91.76
76124;BME280;65173;48.066;20.976;2022-12-11T07:32:48;98430.19;;;0.07;91.56
76124;BME280;65173;48.066;20.976;2022-12-11T07:35:51;98425.44;;;0.09;91.77
76124;BME280;65173;48.066;20.976;2022-12-11T07:38:54;98436.69;;;0.23;91.01
76124;BME280;65173;48.066;20.976;2022-12-11T07:41:57;98440.50;;;0.17;90.65
76124;BME280;65173;48.066;20.976;2022-12-11T07:45:00;98453.19;;;0.23;90.65
76124;BME280;65173;48.066;20.976;2022-12-11T07:48:03;98463.66;;;0.23;90.57
76124;BME280;65173;48.066;20.976;2022-12-11T07:51:20;98480.44;;;0.22;90.19
76124;BME280;65173;48.066;20.976;2022-12-11T07:54:28;98494.75;;;0.30;89.54
76124;BME280;65173;48.066;20.976;2022-12-11T07:57:31;98495.31;;;0.27;89.73
76124;BME280;65173;48.066;20.976;2022-12-11T08:00:34;98504.16;;;0.31;89.58
76124;BME280;65173;48.066;20.976;2022-12-11T08:03:37;98507.28;;;0.33;89.35
76124;BME280;65173;48.066;20.976;2022-12-11T08:06:40;98513.28;;;0.33;89.10
76124;BME280;65173;48.066;20.976;2022-12-11T08:09:43;98519.69;;;0.41;87.84
76124;BME280;65173;48.066;20.976;2022-12-11T08:12:46;98513.88;;;0.44;87.96
76124;BME280;65173;48.066;20.976;2022-12-11T08:15:49;98521.94;;;0.61;87.86
76124;BME280;65173;48.066;20.976;2022-12-11T08:18:52;98524.09;;;0.87;86.93
76124;BME280;65173;48.066;20.976;2022-12-11T08:21:55;98528.66;;;0.81;87.30
76124;BME280;65173;48.066;20.976;2022-12-11T08:24:58;98538.00;;;0.87;86.28
76124;BME280;65173;48.066;20.976;2022-12-11T08:28:03;98562.16;;;0.98;87.10
76124;BME280;65173;48.066;20.976;2022-12-11T08:31:07;98558.00;;;1.24;86.33
76124;BME280;65173;48.066;20.976;2022-12-11T08:34:11;98549.63;;;1.22;83.62
76124;BME280;65173;48.066;20.976;2022-12-11T08:37:15;98545.88;;;2.62;80.59
76124;BME280;65173;48.066;20.976;2022-12-11T08:40:18;98548.81;;;3.09;78.30
76124;BME280;65173;48.066;20.976;2022-12-11T08:43:21;98562.66;;;2.22;81.12
76124;BME280;65173;48.066;20.976;2022-12-11T08:46:26;98586.94;;;1.83;82.39
76124;BME280;65173;48.066;20.976;2022-12-11T08:49:29;98587.06;;;1.78;83.83
76124;BME280;65173;48.066;20.976;2022-12-11T08:52:35;98598.94;;;1.75;83.96
76124;BME280;65173;48.066;20.976;2022-12-11T08:55:38;98605.44;;;1.64;82.05
76124;BME280;65173;48.066;20.976;2022-12-11T08:58:41;98619.47;;;1.73;82.87
76124;BME280;65173;48.066;20.976;2022-12-11T09:01:44;98627.50;;;1.90;82.08
76124;BME280;65173;48.066;20.976;2022-12-11T09:04:47;98615.09;;;2.04;81.78
76124;BME280;65173;48.066;20.976;2022-12-11T09:07:50;98616.06;;;2.31;81.65
76124;BME280;65173;48.066;20.976;2022-12-11T09:10:53;98627.16;;;2.05;81.88
76124;BME280;65173;48.066;20.976;2022-12-11T09:13:56;98619.50;;;1.95;83.92
76124;BME280;65173;48.066;20.976;2022-12-11T09:17:06;98636.69;;;2.01;84.71
76124;BME280;65173;48.066;20.976;2022-12-11T09:20:10;98632.34;;;1.97;85.15
76124;BME280;65173;48.066;20.976;2022-12-11T09:23:13;98624.19;;;1.85;85.03
76124;BME280;65173;48.066;20.976;2022-12-11T09:26:18;98634.97;;;1.83;85.82
76124;BME280;65173;48.066;20.976;2022-12-11T09:29:21;98648.59;;;1.85;86.68
76124;BME280;65173;48.066;20.976;2022-12-11T09:32:25;98651.03;;;1.82;85.12
76124;BME280;65173;48.066;20.976;2022-12-11T09:35:27;98650.78;;;1.56;86.37
76124;BME280;65173;48.066;20.976;2022-12-11T09:38:31;98655.19;;;1.60;87.61
76124;BME280;65173;48.066;20.976;2022-12-11T09:41:52;98658.56;;;1.47;87.09
76124;BME280;65173;48.066;20.976;2022-12-11T09:45:00;98674.03;;;1.49;87.42
76124;BME280;65173;48.066;20.976;2022-12-11T09:48:04;98683.56;;;1.45;87.69
76124;BME280;65173;48.066;20.976;2022-12-11T09:51:17;98681.13;;;1.48;87.62
76124;BME280;65173;48.066;20.976;2022-12-11T09:54:21;98687.72;;;1.46;88.19
76124;BME280;65173;48.066;20.976;2022-12-11T09:57:57;98689.69;;;1.40;87.67
76124;BME280;65173;48.066;20.976;2022-12-11T10:01:27;98685.09;;;1.32;87.74
76124;BME280;65173;48.066;20.976;2022-12-11T10:08:20;98697.00;;;1.43;88.59
76124;BME280;65173;48.066;20.976;2022-12-11T10:18:24;98712.63;;;1.48;87.23
76124;BME280;65173;48.066;20.976;2022-12-11T10:21:35;98717.38;;;1.46;86.83
76124;BME280;65173;48.066;20.976;2022-12-11T10:24:41;98712.34;;;1.50;87.32
76124;BME280;65173;48.066;20.976;2022-12-11T10:28:15;98724.00;;;1.44;86.88
76124;BME280;65173;48.066;20.976;2022-12-11T10:34:34;98731.50;;;1.64;86.38
76124;BME280;65173;48.066;20.976;2022-12-11T10:37:38;98738.41;;;1.60;86.67
76124;BME280;65173;48.066;20.976;2022-12-11T10:40:48;98744.75;;;1.59;86.33
76124;BME280;65173;48.066;20.976;2022-12-11T10:43:52;98742.41;;;1.57;86.65
76124;BME280;65173;48.066;20.976;2022-12-11T10:47:05;98750.84;;;1.68;87.03
76124;BME280;65173;48.066;20.976;2022-12-11T10:50:22;98758.81;;;1.63;86.83
76124;BME280;65173;48.066;20.976;2022-12-11T10:53:27;98754.84;;;1.65;87.13
76124;BME280;65173;48.066;20.976;2022-12-11T10:56:32;98758.66;;;1.73;87.50
76124;BME280;65173;48.066;20.976;2022-12-11T10:59:45;98763.41;;;1.71;86.12
76124;BME280;65173;48.066;20.976;2022-12-11T11:02:49;98769.06;;;1.78;86.22
76124;BME280;65173;48.066;20.976;2022-12-11T11:06:20;98781.59;;;1.81;85.22
76124;BME280;65173;48.066;20.976;2022-12-11T11:09:29;98775.09;;;1.79;84.47
76124;BME280;65173;48.066;20.976;2022-12-11T11:12:37;98774.31;;;1.78;85.01
76124;BME280;65173;48.066;20.976;2022-12-11T11:15:41;98764.38;;;1.89;84.04
76124;BME280;65173;48.066;20.976;2022-12-11T11:18:52;98761.75;;;1.89;84.31
76124;BME280;65173;48.066;20.976;2022-12-11T11:21:58;98758.25;;;1.93;83.06
76124;BME280;65173;48.066;20.976;2022-12-11T11:25:02;98767.69;;;2.08;82.73
76124;BME280;65173;48.066;20.976;2022-12-11T11:31:39;98790.03;;;2.19;81.55
76124;BME280;65173;48.066;20.976;2022-12-11T11:34:43;98781.19;;;2.29;82.99
76124;BME280;65173;48.066;20.976;2022-12-11T11:38:03;98785.16;;;2.40;80.55
76124;BME280;65173;48.066;20.976;2022-12-11T11:41:12;98796.75;;;2.39;78.79
76124;BME280;65173;48.066;20.976;2022-12-11T11:47:51;98807.84;;;2.36;79.01
76124;BME280;65173;48.066;20.976;2022-12-11T11:51:07;98809.13;;;2.25;78.64
76124;BME280;65173;48.066;20.976;2022-12-11T11:54:24;98806.13;;;2.31;77.82
76124;BME280;65173;48.066;20.976;2022-12-11T11:57:44;98804.34;;;2.40;78.03
76124;BME280;65173;48.066;20.976;2022-12-11T12:00:52;98806.69;;;2.42;80.17
76124;BME280;65173;48.066;20.976;2022-12-11T12:03:55;98818.03;;;2.51;78.17
76124;BME280;65173;48.066;20.976;2022-12-11T12:07:20;98822.44;;;2.42;78.33
76124;BME280;65173;48.066;20.976;2022-12-11T12:10:34;98836.19;;;2.39;77.80
76124;BME280;65173;48.066;20.976;2022-12-11T12:13:45;98845.44;;;2.36;78.51
76124;BME280;65173;48.066;20.976;2022-12-11T12:20:40;98834.03;;;2.41;81.72
76124;BME280;65173;48.066;20.976;2022-12-11T12:27:38;98847.94;;;2.55;83.33
76124;BME280;65173;48.066;20.976;2022-12-11T12:40:42;98832.97;;;2.42;78.42
76124;BME280;65173;48.066;20.976;2022-12-11T12:47:14;98832.16;;;2.55;78.17
76124;BME280;65173;48.066;20.976;2022-12-11T12:50:23;98838.50;;;2.40;79.11
76124;BME280;65173;48.066;20.976;2022-12-11T12:53:30;98858.78;;;2.26;80.43
76124;BME280;65173;48.066;20.976;2022-12-11T12:56:35;98869.31;;;2.13;82.98
76124;BME280;65173;48.066;20.976;2022-12-11T12:59:38;98870.66;;;2.10;79.56
76124;BME280;65173;48.066;20.976;2022-12-11T13:02:49;98867.25;;;2.09;81.43
76124;BME280;65173;48.066;20.976;2022-12-11T13:06:01;98875.22;;;2.18;80.90
76124;BME280;65173;48.066;20.976;2022-12-11T13:12:31;98895.28;;;2.14;80.73
76124;BME280;65173;48.066;20.976;2022-12-11T13:15:39;98905.81;;;2.14;79.86
76124;BME280;65173;48.066;20.976;2022-12-11T13:18:46;98897.94;;;2.14;80.99
76124;BME280;65173;48.066;20.976;2022-12-11T13:31:36;98919.44;;;1.84;83.18
76124;BME280;65173;48.066;20.976;2022-12-11T13:34:42;98913.72;;;1.82;83.82
76124;BME280;65173;48.066;20.976;2022-12-11T13:37:48;98916.78;;;1.70;83.41
76124;BME280;65173;48.066;20.976;2022-12-11T13:40:53;98921.78;;;1.71;83.60
76124;BME280;65173;48.066;20.976;2022-12-11T13:43:56;98930.28;;;1.63;83.99
76124;BME280;65173;48.066;20.976;2022-12-11T13:47:01;98929.78;;;1.61;84.79
76124;BME280;65173;48.066;20.976;2022-12-11T13:50:19;98919.38;;;1.56;83.47
76124;BME280;65173;48.066;20.976;2022-12-11T13:53:25;98925.84;;;1.45;83.66
76124;BME280;65173;48.066;20.976;2022-12-11T13:56:28;98927.06;;;1.53;83.55
76124;BME280;65173;48.066;20.976;2022-12-11T13:59:34;98930.53;;;1.48;84.08
76124;BME280;65173;48.066;20.976;2022-12-11T14:02:39;98921.47;;;1.41;84.25
76124;BME280;65173;48.066;20.976;2022-12-11T14:05:44;98927.00;;;1.39;84.00
76124;BME280;65173;48.066;20.976;2022-12-11T14:08:49;98930.41;;;1.39;84.06
76124;BME280;65173;48.066;20.976;2022-12-11T14:11:53;98937.56;;;1.53;83.66
76124;BME280;65173;48.066;20.976;2022-12-11T14:14:59;98947.00;;;1.54;84.43
76124;BME280;65173;48.066;20.976;2022-12-11T14:18:04;98951.63;;;1.43;84.38
76124;BME280;65173;48.066;20.976;2022-12-11T14:21:07;98960.19;;;1.49;84.81
76124;BME280;65173;48.066;20.976;2022-12-11T14:24:18;98963.38;;;1.46;84.86
76124;BME280;65173;48.066;20.976;2022-12-11T14:27:21;98966.59;;;1.43;83.87
76124;BME280;65173;48.066;20.976;2022-12-11T14:30:29;98967.28;;;1.29;84.71
76124;BME280;65173;48.066;20.976;2022-12-11T14:33:37;98981.47;;;1.28;85.17
76124;BME280;65173;48.066;20.976;2022-12-11T14:36:42;98993.31;;;1.45;84.49
76124;BME280;65173;48.066;20.976;2022-12-11T14:39:59;99002.13;;;1.35;84.60
76124;BME280;65173;48.066;20.976;2022-12-11T14:43:17;98990.41;;;1.46;83.63
76124;BME280;65173;48.066;20.976;2022-12-11T14:46:35;98988.38;;;1.43;84.43
76124;BME280;65173;48.066;20.976;2022-12-11T14:49:50;98980.13;;;1.31;84.51
76124;BME280;65173;48.066;20.976;2022-12-11T14:53:04;98972.47;;;1.16;84.65
76124;BME280;65173;48.066;20.976;2022-12-11T14:56:16;98977.88;;;1.24;83.72
76124;BME280;65173;48.066;20.976;2022-12-11T14:59:21;98987.94;;;1.17;84.47
76124;BME280;65173;48.066;20.976;2022-12-11T15:02:35;99001.06;;;1.36;83.53
76124;BME280;65173;48.066;20.976;2022-12-11T15:05:51;99005.47;;;1.41;82.75
76124;BME280;65173;48.066;20.976;2022-12-11T15:08:55;99003.97;;;1.34;84.53
76124;BME280;65173;48.066;20.976;2022-12-11T15:12:13;99012.81;;;1.20;85.01
76124;BME280;65173;48.066;20.976;2022-12-11T15:15:16;99020.69;;;1.20;85.42
76124;BME280;65173;48.066;20.976;2022-12-11T15:18:26;99016.84;;;1.12;85.15
76124;BME280;65173;48.066;20.976;2022-12-11T15:21:36;99026.50;;;0.93;86.54
76124;BME280;65173;48.066;20.976;2022-12-11T15:24:41;99021.34;;;0.88;84.67
76124;BME280;65173;48.066;20.976;2022-12-11T15:27:44;99028.25;;;0.79;85.25
76124;BME280;65173;48.066;20.976;2022-12-11T15:30:57;99035.34;;;0.78;84.31
76124;BME280;65173;48.066;20.976;2022-12-11T15:34:01;99032.94;;;0.82;85.74
76124;BME280;65173;48.066;20.976;2022-12-11T15:37:16;99035.69;;;0.72;84.56
76124;BME280;65173;48.066;20.976;2022-12-11T15:40:20;99040.31;;;0.80;85.74
76124;BME280;65173;48.066;20.976;2022-12-11T15:43:23;99049.34;;;0.92;84.21
76124;BME280;65173;48.066;20.976;2022-12-11T15:46:26;99049.75;;;0.81;84.26
76124;BME280;65173;48.066;20.976;2022-12-11T15:49:29;99051.69;;;0.94;82.63
76124;BME280;65173;48.066;20.976;2022-12-11T15:52:32;99053.41;;;0.80;84.99
76124;BME280;65173;48.066;20.976;2022-12-11T15:55:37;99057.94;;;0.98;85.62
76124;BME280;65173;48.066;20.976;2022-12-11T15:58:41;99066.31;;;1.00;85.07
76124;BME280;65173;48.066;20.976;2022-12-11T16:01:46;99070.56;;;0.96;85.11
76124;BME280;65173;48.066;20.976;2022-12-11T16:04:49;99069.00;;;0.95;83.54
76124;BME280;65173;48.066;20.976;2022-12-11T16:07:52;99068.72;;;0.96;84.30
76124;BME280;65173;48.066;20.976;2022-12-11T16:10:56;99073.28;;;0.86;83.51
76124;BME280;65173;48.066;20.976;2022-12-11T16:13:59;99075.41;;;0.84;83.35
76124;BME280;65173;48.066;20.976;2022-12-11T16:17:07;99078.88;;;0.79;83.76
76124;BME280;65173;48.066;20.976;2022-12-11T16:20:11;99082.38;;;0.69;85.67
76124;BME280;65173;48.066;20.976;2022-12-11T16:23:16;99079.75;;;0.69;85.45
76124;BME280;65173;48.066;20.976;2022-12-11T16:26:19;99081.41;;;0.89;82.78
76124;BME280;65173;48.066;20.976;2022-12-11T16:29:22;99078.81;;;0.84;83.93
76124;BME280;65173;48.066;20.976;2022-12-11T16:32:25;99079.47;;;0.95;84.10
76124;BME280;65173;48.066;20.976;2022-12-11T16:35:28;99074.69;;;1.02;84.33
76124;BME280;65173;48.066;20.976;2022-12-11T16:38:31;99082.38;;;0.69;84.76
76124;BME280;65173;48.066;20.976;2022-12-11T16:41:34;99075.47;;;0.79;84.06
76124;BME280;65173;48.066;20.976;2022-12-11T16:44:37;99079.84;;;0.88;83.57
76124;BME280;65173;48.066;20.976;2022-12-11T16:47:45;99079.78;;;0.64;85.38
76124;BME280;65173;48.066;20.976;2022-12-11T16:50:52;99078.75;;;0.65;85.94
76124;BME280;65173;48.066;20.976;2022-12-11T16:53:55;99072.72;;;0.65;85.46
76124;BME280;65173;48.066;20.976;2022-12-11T16:56:58;99074.09;;;0.57;85.67
76124;BME280;65173;48.066;20.976;2022-12-11T17:00:00;99080.09;;;0.58;84.88
76124;BME280;65173;48.066;20.976;2022-12-11T17:03:03;99076.06;;;0.71;85.58
76124;BME280;65173;48.066;20.976;2022-12-11T17:06:07;99082.94;;;0.90;82.24
76124;BME280;65173;48.066;20.976;2022-12-11T17:09:11;99088.28;;;0.80;83.71
76124;BME280;65173;48.066;20.976;2022-12-11T17:12:14;99079.59;;;0.85;84.48
76124;BME280;65173;48.066;20.976;2022-12-11T17:15:17;99090.53;;;0.92;84.32
76124;BME280;65173;48.066;20.976;2022-12-11T17:18:20;99085.63;;;0.85;84.28
76124;BME280;65173;48.066;20.976;2022-12-11T17:21:23;99085.28;;;0.92;83.88
76124;BME280;65173;48.066;20.976;2022-12-11T17:24:26;99083.56;;;0.82;84.21
76124;BME280;65173;48.066;20.976;2022-12-11T17:27:29;99097.44;;;0.83;84.26
76124;BME280;65173;48.066;20.976;2022-12-11T17:30:32;99095.78;;;0.92;84.34
76124;BME280;65173;48.066;20.976;2022-12-11T17:33:35;99099.75;;;0.89;84.95
76124;BME280;65173;48.066;20.976;2022-12-11T17:36:38;99088.44;;;0.65;84.19